Time;durP1;ratioP1;P1;durP2;ratioP2;P2;SDS_P1;SDS_P2;PMS_P1;PMS_P2;Temp;Humidity;BMP_temperature;BMP_pressure;BME280_temperature;BME280_humidity;BME280_pressure;Samples;Min_cycle;Max_cycle;Signal;HPM_P1;HPM_P2
2022/04/13 00:00:00;;;;;;;;;2.00;1.75;;;;;17.96;52.09;101123.38;2442037;28;46298;-91
2022/04/13 00:01:10;;;;;;;;;1.00;1.00;;;;;17.95;52.73;101118.16;2446371;27;45297;-92
2022/04/13 00:02:21;;;;;;;;;1.00;1.00;;;;;17.95;52.54;101126.13;2441652;28;45620;-91
2022/04/13 00:03:31;;;;;;;;;1.50;1.00;;;;;17.94;52.58;101122.63;2441179;28;45298;-92
2022/04/13 00:04:42;;;;;;;;;1.50;1.00;;;;;17.92;52.83;101127.16;2441403;28;46154;-93
2022/04/13 00:05:52;;;;;;;;;1.00;1.00;;;;;17.93;52.69;101126.19;2441966;28;45239;-92
2022/04/13 00:07:02;;;;;;;;;1.00;1.00;;;;;17.91;52.70;101128.09;2441667;28;46222;-93
2022/04/13 00:08:13;;;;;;;;;2.00;0.25;;;;;17.91;52.73;101130.75;2441712;28;45274;-91
2022/04/13 00:09:23;;;;;;;;;1.50;1.25;;;;;17.91;52.56;101141.41;2441832;28;46193;-92
2022/04/13 00:10:35;;;;;;;;;2.50;2.00;;;;;17.91;52.63;101136.06;2441615;28;44668;-92
2022/04/13 00:11:45;;;;;;;;;2.50;1.00;;;;;17.91;53.04;101140.53;2441288;28;46365;-91
2022/04/13 00:12:56;;;;;;;;;1.25;1.25;;;;;17.90;52.92;101145.03;2448580;28;45215;-91
2022/04/13 00:14:07;;;;;;;;;1.00;1.00;;;;;17.90;52.99;101139.69;2438974;28;46999;-90
2022/04/13 00:15:17;;;;;;;;;3.75;2.00;;;;;17.91;53.29;101143.19;2444909;28;45554;-91
2022/04/13 00:16:28;;;;;;;;;1.00;1.00;;;;;17.90;53.12;101139.69;2457656;27;47141;-92
2022/04/13 00:17:38;;;;;;;;;2.75;1.50;;;;;17.90;53.27;101139.69;2448386;28;45439;-92
2022/04/13 00:18:48;;;;;;;;;1.00;1.00;;;;;17.90;53.44;101154.78;2450654;28;45436;-92
2022/04/13 00:19:59;;;;;;;;;0.25;0.25;;;;;17.88;52.98;101149.53;2453537;27;44726;-91
2022/04/13 00:21:10;;;;;;;;;2.75;1.75;;;;;17.88;53.28;101154.84;2448074;28;46249;-91
2022/04/13 00:22:20;;;;;;;;;2.50;1.00;;;;;17.89;53.14;101153.94;2441460;28;45310;-92
2022/04/13 00:23:31;;;;;;;;;1.00;1.00;;;;;17.87;53.08;101151.38;2450359;28;45413;-91
2022/04/13 00:24:41;;;;;;;;;2.00;2.00;;;;;17.88;53.57;101157.53;2451408;28;45464;-91
2022/04/13 00:25:51;;;;;;;;;1.00;1.00;;;;;17.88;53.81;101155.72;2451307;27;45360;-91
2022/04/13 00:27:02;;;;;;;;;1.00;1.00;;;;;17.88;53.63;101160.19;2445698;27;44830;-92
2022/04/13 00:28:12;;;;;;;;;2.50;1.25;;;;;17.87;53.69;101158.47;2440672;28;47165;-91
2022/04/13 00:29:23;;;;;;;;;5.00;2.00;;;;;17.87;53.59;101155.81;2442593;28;45335;-91
2022/04/13 00:30:33;;;;;;;;;2.00;2.00;;;;;17.85;53.96;101150.56;2450668;28;47787;-91
2022/04/13 00:31:44;;;;;;;;;1.00;1.00;;;;;17.86;53.64;101159.41;2442925;28;45512;-92
2022/04/13 00:32:54;;;;;;;;;1.25;1.00;;;;;17.84;54.18;101154.19;2447731;28;46413;-92
2022/04/13 00:34:04;;;;;;;;;1.75;1.00;;;;;17.84;54.09;101150.66;2441890;28;44619;-91
2022/04/13 00:35:15;;;;;;;;;2.00;2.00;;;;;17.83;53.68;101151.63;2448663;28;45258;-92
2022/04/13 00:36:25;;;;;;;;;3.00;1.00;;;;;17.82;54.40;101148.13;2446713;27;44582;-92
2022/04/13 00:37:37;;;;;;;;;2.00;2.00;;;;;17.81;54.21;101148.19;2441463;28;45443;-91
2022/04/13 00:38:47;;;;;;;;;3.75;2.50;;;;;17.81;54.10;101151.69;2450514;28;45282;-91
2022/04/13 00:39:58;;;;;;;;;2.00;2.00;;;;;17.80;54.03;101144.69;2443998;28;46469;-92
2022/04/13 00:41:09;;;;;;;;;1.00;1.00;;;;;17.76;54.07;101144.00;2441590;28;45279;-93
2022/04/13 00:42:19;;;;;;;;;2.00;1.25;;;;;17.75;53.84;101144.09;2441588;28;45455;-92
2022/04/13 00:43:29;;;;;;;;;0.00;0.00;;;;;17.75;54.53;101144.09;2449094;28;45322;-93
2022/04/13 00:44:40;;;;;;;;;2.00;1.25;;;;;17.74;54.01;101139.72;2450940;28;45333;-92
2022/04/13 00:45:50;;;;;;;;;1.75;1.50;;;;;17.73;54.15;101138.84;2450575;27;45256;-92
2022/04/13 00:47:05;;;;;;;;;3.00;1.25;;;;;17.72;54.53;101141.59;2441572;28;45252;-92
2022/04/13 00:48:38;;;;;;;;;1.00;1.00;;;;;17.71;54.28;101140.75;2446422;28;44834;-92
2022/04/13 00:49:49;;;;;;;;;0.25;0.25;;;;;17.70;54.67;101141.69;2448763;28;45760;-92
2022/04/13 00:50:59;;;;;;;;;1.50;1.00;;;;;17.70;54.76;101143.50;2450460;28;45244;-91
2022/04/13 00:52:11;;;;;;;;;1.25;1.25;;;;;17.71;54.85;101150.50;2450653;28;45333;-92
2022/04/13 00:53:22;;;;;;;;;2.00;1.00;;;;;17.68;54.93;101146.22;2442967;27;45311;-92
2022/04/13 00:54:34;;;;;;;;;1.75;1.75;;;;;17.68;54.36;101148.03;2445728;28;46401;-91
2022/04/13 00:55:46;;;;;;;;;1.00;1.00;;;;;17.66;54.88;101145.47;2451268;27;44625;-91
2022/04/13 00:56:58;;;;;;;;;1.75;1.00;;;;;17.63;54.96;101148.31;2449757;27;46556;-91
2022/04/13 00:58:13;;;;;;;;;2.25;1.25;;;;;17.62;54.82;101143.94;2451284;28;45312;-90
2022/04/13 00:59:25;;;;;;;;;2.00;2.00;;;;;17.59;54.79;101142.28;2451282;28;45576;-92
2022/04/13 01:00:38;;;;;;;;;3.00;1.75;;;;;17.57;54.57;101136.22;2448893;28;45172;-91
2022/04/13 01:01:51;;;;;;;;;1.00;1.00;;;;;17.56;54.80;101137.16;2446324;28;46471;-92
2022/04/13 01:03:02;;;;;;;;;2.25;2.25;;;;;17.53;54.88;101146.16;2446639;28;44617;-92
2022/04/13 01:04:12;;;;;;;;;3.50;2.25;;;;;17.51;55.02;101148.03;2441859;28;45537;-92
2022/04/13 01:05:24;;;;;;;;;1.00;1.00;;;;;17.51;54.84;101141.88;2451113;27;45352;-92
2022/04/13 01:06:34;;;;;;;;;1.50;1.50;;;;;17.50;54.97;101149.00;2450426;28;45284;-92
2022/04/13 01:07:47;;;;;;;;;1.00;1.00;;;;;17.48;55.21;101142.06;2444655;28;45347;-92
2022/04/13 01:08:58;;;;;;;;;0.75;0.75;;;;;17.47;54.95;101149.16;2445942;28;45413;-92
2022/04/13 01:10:09;;;;;;;;;1.00;1.00;;;;;17.46;55.13;101151.91;2450377;27;45523;-92
2022/04/13 01:11:19;;;;;;;;;1.75;1.75;;;;;17.44;55.76;101149.31;2448382;28;46306;-92
2022/04/13 01:12:30;;;;;;;;;1.75;1.75;;;;;17.43;55.60;101142.31;2447243;28;45401;-92
2022/04/13 01:13:40;;;;;;;;;1.50;1.25;;;;;17.42;55.23;101137.94;2448409;28;45185;-91
2022/04/13 01:14:50;;;;;;;;;1.00;1.00;;;;;17.41;55.43;101149.50;2444568;28;45266;-92
2022/04/13 01:16:01;;;;;;;;;0.25;0.25;;;;;17.39;55.10;101146.94;2446726;27;45374;-92
2022/04/13 01:17:11;;;;;;;;;3.00;1.00;;;;;17.39;55.01;101143.41;2453995;27;45245;-93
2022/04/13 01:18:22;;;;;;;;;1.00;1.00;;;;;17.40;55.30;101145.13;2443095;28;47176;-92
2022/04/13 01:19:32;;;;;;;;;2.75;2.00;;;;;17.39;55.37;101146.06;2443314;28;45256;-90
2022/04/13 01:20:56;;;;;;;;;2.25;2.00;;;;;17.39;55.36;101151.38;2449609;28;45180;-92
2022/04/13 01:22:19;;;;;;;;;2.00;2.00;;;;;17.37;55.37;101148.81;2441897;27;45302;-92
2022/04/13 01:23:29;;;;;;;;;1.25;1.25;;;;;17.36;55.40;101147.09;2440554;28;47386;-91
2022/04/13 01:24:39;;;;;;;;;3.75;2.25;;;;;17.35;55.41;101141.88;2440692;28;44649;-92
2022/04/13 01:25:51;;;;;;;;;2.25;2.25;;;;;17.33;55.95;101147.28;2444359;28;45323;-92
2022/04/13 01:27:02;;;;;;;;;3.00;2.00;;;;;17.33;55.84;101157.91;2450283;27;44705;-92
2022/04/13 01:28:12;;;;;;;;;2.25;1.50;;;;;17.32;55.85;101151.72;2442010;28;46736;-92
2022/04/13 01:29:22;;;;;;;;;4.25;2.50;;;;;17.31;55.68;101149.13;2441259;28;45153;-92
2022/04/13 01:30:33;;;;;;;;;2.00;2.00;;;;;17.29;55.45;101151.91;2448467;28;46449;-92
2022/04/13 01:31:44;;;;;;;;;2.75;1.75;;;;;17.29;55.87;101159.88;2446883;28;44736;-91
2022/04/13 01:32:55;;;;;;;;;2.25;2.00;;;;;17.27;56.32;101151.13;2443838;28;45351;-92
2022/04/13 01:34:07;;;;;;;;;4.00;2.00;;;;;17.27;55.76;101158.22;2451305;28;44587;-92
2022/04/13 01:35:17;;;;;;;;;2.00;2.00;;;;;17.25;55.95;101160.13;2449389;27;48552;-92
2022/04/13 01:36:29;;;;;;;;;2.00;2.00;;;;;17.26;56.25;101167.16;2450805;28;45378;-92
2022/04/13 01:37:39;;;;;;;;;2.00;2.00;;;;;17.24;56.08;101161.06;2447213;27;45503;-92
2022/04/13 01:38:49;;;;;;;;;2.75;2.00;;;;;17.23;56.30;101160.22;2444322;28;45298;-92
2022/04/13 01:40:01;;;;;;;;;2.75;2.00;;;;;17.21;56.31;101162.09;2448972;28;46486;-92
2022/04/13 01:41:11;;;;;;;;;2.00;2.00;;;;;17.22;56.22;101163.78;2449993;28;45263;-92
2022/04/13 01:42:22;;;;;;;;;1.50;1.50;;;;;17.20;56.29;101163.91;2440249;28;46807;-92
2022/04/13 01:43:32;;;;;;;;;2.25;2.25;;;;;17.21;56.19;101164.75;2440499;28;45252;-92
2022/04/13 01:44:43;;;;;;;;;3.00;2.50;;;;;17.20;56.15;101163.03;2445780;28;46510;-92
2022/04/13 01:45:54;;;;;;;;;2.00;2.00;;;;;17.19;56.57;101171.94;2451121;27;44588;-91
2022/04/13 01:47:05;;;;;;;;;2.50;1.50;;;;;17.21;56.44;101170.06;2447220;27;46228;-91
2022/04/13 01:48:16;;;;;;;;;1.25;1.25;;;;;17.19;56.50;101170.13;2447188;28;45267;-92
2022/04/13 01:49:27;;;;;;;;;6.25;2.25;;;;;17.19;56.38;101169.28;2447770;28;45746;-92
2022/04/13 01:50:37;;;;;;;;;3.00;2.00;;;;;17.18;56.50;101164.91;2447996;28;44806;-92
2022/04/13 01:51:48;;;;;;;;;2.00;2.00;;;;;17.17;56.33;101165.84;2446292;27;45275;-92
2022/04/13 01:52:58;;;;;;;;;4.00;2.00;;;;;17.17;56.64;101165.84;2448646;28;45261;-92
2022/04/13 01:54:08;;;;;;;;;4.25;2.00;;;;;17.18;56.67;101167.56;2450638;28;45308;-92
2022/04/13 01:55:19;;;;;;;;;2.50;1.50;;;;;17.17;56.67;101166.72;2450546;27;44648;-92
2022/04/13 01:56:29;;;;;;;;;1.75;1.75;;;;;17.16;56.84;101172.13;2440624;28;46199;-92
2022/04/13 01:57:41;;;;;;;;;3.00;3.00;;;;;17.17;56.83;101180.00;2441042;27;45244;-91
2022/04/13 01:58:51;;;;;;;;;3.25;2.00;;;;;17.17;57.01;101176.47;2448681;27;45429;-92
2022/04/13 02:00:07;;;;;;;;;3.25;2.00;;;;;17.16;56.74;101177.44;2449415;28;45291;-92
2022/04/13 02:01:17;;;;;;;;;4.00;2.00;;;;;17.16;56.93;101174.78;2440882;28;45307;-91
2022/04/13 02:02:28;;;;;;;;;3.00;3.00;;;;;17.16;57.16;101180.09;2450407;27;45492;-92
2022/04/13 02:03:40;;;;;;;;;2.75;1.75;;;;;17.15;56.50;101186.28;2447737;28;48447;-91
2022/04/13 02:04:50;;;;;;;;;1.00;1.00;;;;;17.16;56.59;101191.53;2440654;28;45369;-91
2022/04/13 02:06:03;;;;;;;;;3.75;1.75;;;;;17.16;57.20;101186.22;2448474;28;47268;-93
2022/04/13 02:07:14;;;;;;;;;2.00;2.00;;;;;17.16;57.29;101188.06;2439861;28;45261;-92
2022/04/13 02:08:26;;;;;;;;;1.00;1.00;;;;;17.16;56.99;101185.41;2441821;28;45265;-92
2022/04/13 02:09:36;;;;;;;;;3.00;2.00;;;;;17.15;57.30;101179.22;2451033;28;44524;-93
2022/04/13 02:10:47;;;;;;;;;3.00;3.00;;;;;17.16;56.84;101177.44;2444744;28;48056;-93
2022/04/13 02:11:57;;;;;;;;;3.25;1.50;;;;;17.15;56.79;101176.56;2440613;28;45339;-92
2022/04/13 02:13:08;;;;;;;;;3.00;2.50;;;;;17.15;56.98;101176.56;2445371;28;46829;-92
2022/04/13 02:14:19;;;;;;;;;3.00;1.75;;;;;17.16;56.90;101183.56;2442415;28;45219;-93
2022/04/13 02:15:29;;;;;;;;;2.00;2.00;;;;;17.16;57.28;101180.91;2450305;28;45379;-92
2022/04/13 02:16:40;;;;;;;;;3.00;2.50;;;;;17.17;56.71;101182.66;2449077;27;46775;-92
2022/04/13 02:17:50;;;;;;;;;3.00;3.00;;;;;17.17;57.12;101179.13;2449122;28;45470;-92
2022/04/13 02:19:02;;;;;;;;;4.50;3.50;;;;;17.17;57.13;101177.34;2440460;28;45287;-92
2022/04/13 02:20:12;;;;;;;;;4.00;3.00;;;;;17.16;57.07;101178.25;2446061;28;45481;-91
2022/04/13 02:21:22;;;;;;;;;3.00;3.00;;;;;17.18;57.16;101180.84;2444645;28;45509;-92
2022/04/13 02:22:32;;;;;;;;;3.00;3.00;;;;;17.18;56.92;101181.72;2444541;28;48107;-92
2022/04/13 02:23:43;;;;;;;;;3.00;3.00;;;;;17.18;56.90;101180.84;2440453;28;44889;-92
2022/04/13 02:24:53;;;;;;;;;3.00;2.00;;;;;17.18;56.85;101181.72;2440894;28;45509;-92
2022/04/13 02:26:04;;;;;;;;;2.00;2.00;;;;;17.18;56.98;101189.69;2440887;28;44595;-93
2022/04/13 02:27:14;;;;;;;;;4.00;2.00;;;;;17.18;56.96;101188.81;2443832;28;46373;-93
2022/04/13 02:28:24;;;;;;;;;3.25;2.75;;;;;17.18;57.24;101181.72;2447273;28;45164;-92
2022/04/13 02:29:36;;;;;;;;;3.75;2.00;;;;;17.19;57.06;101187.88;2446551;28;45245;-90
2022/04/13 02:30:46;;;;;;;;;3.00;3.00;;;;;17.19;56.80;101195.81;2448678;28;45256;-92
2022/04/13 02:31:56;;;;;;;;;2.25;2.25;;;;;17.21;57.13;101196.63;2440532;28;45212;-92
2022/04/13 02:33:06;;;;;;;;;2.00;2.00;;;;;17.18;57.03;101187.03;2441023;28;45213;-91
2022/04/13 02:34:18;;;;;;;;;2.00;2.00;;;;;17.19;57.07;101193.19;2442382;28;48203;-93
2022/04/13 02:35:28;;;;;;;;;2.00;2.00;;;;;17.19;57.24;101191.38;2449639;28;45334;-93
2022/04/13 02:36:38;;;;;;;;;2.50;2.50;;;;;17.19;57.03;101190.53;2445992;27;45653;-92
2022/04/13 02:37:49;;;;;;;;;2.75;2.00;;;;;17.19;57.34;101196.69;2442545;28;45358;-92
2022/04/13 02:38:59;;;;;;;;;2.25;2.25;;;;;17.19;57.06;101198.47;2442518;28;45248;-92
2022/04/13 02:40:11;;;;;;;;;3.00;3.00;;;;;17.19;57.36;101204.66;2445604;28;44835;-92
2022/04/13 02:41:21;;;;;;;;;4.75;1.50;;;;;17.18;57.12;101197.66;2451705;28;46408;-93
2022/04/13 02:42:35;;;;;;;;;3.25;2.25;;;;;17.18;57.16;101202.09;2442390;28;45263;-92
2022/04/13 02:43:46;;;;;;;;;4.00;2.00;;;;;17.17;56.97;101195.94;2442015;28;45822;-91
2022/04/13 02:44:57;;;;;;;;;2.75;2.25;;;;;17.17;56.95;101197.72;2442429;28;45213;-90
2022/04/13 02:46:07;;;;;;;;;3.75;3.00;;;;;17.17;57.30;101197.72;2445686;28;46312;-92
2022/04/13 02:47:17;;;;;;;;;4.00;3.00;;;;;17.16;56.93;101191.53;2442834;28;45354;-94
2022/04/13 02:48:28;;;;;;;;;4.25;3.50;;;;;17.15;57.18;101192.50;2449930;28;45368;-92
2022/04/13 02:49:38;;;;;;;;;3.00;3.00;;;;;17.17;57.35;101187.97;2451703;27;45325;-92
2022/04/13 02:50:49;;;;;;;;;5.00;3.00;;;;;17.17;57.10;101192.41;2448158;28;46146;-92
2022/04/13 02:51:59;;;;;;;;;4.00;2.25;;;;;17.16;57.41;101193.38;2442802;28;45200;-92
2022/04/13 02:53:09;;;;;;;;;4.50;2.00;;;;;17.16;57.39;101188.06;2451436;28;48020;-92
2022/04/13 02:54:20;;;;;;;;;2.00;2.00;;;;;17.17;57.53;101185.31;2444827;28;45314;-92
2022/04/13 02:55:30;;;;;;;;;2.50;2.25;;;;;17.15;57.34;101180.97;2444135;28;47255;-93
2022/04/13 02:56:41;;;;;;;;;3.00;3.00;;;;;17.16;57.54;101188.06;2447704;28;45252;-92
2022/04/13 02:57:51;;;;;;;;;3.50;3.00;;;;;17.16;57.44;101190.72;2442944;28;47155;-93
2022/04/13 02:59:01;;;;;;;;;2.50;2.00;;;;;17.14;57.39;101179.25;2443401;28;45984;-91
2022/04/13 03:00:12;;;;;;;;;4.25;3.00;;;;;17.14;58.04;101184.56;2453238;27;46999;-92
2022/04/13 03:01:23;;;;;;;;;3.00;2.00;;;;;17.13;57.85;101183.72;2456257;27;44669;-92
2022/04/13 03:02:33;;;;;;;;;3.00;2.00;;;;;17.11;57.79;101180.31;2451809;28;45364;-91
2022/04/13 03:03:43;;;;;;;;;3.25;3.25;;;;;17.12;57.70;101186.44;2451267;28;45216;-92
2022/04/13 03:04:54;;;;;;;;;3.00;2.00;;;;;17.13;58.04;101185.53;2444250;28;46781;-92
2022/04/13 03:06:04;;;;;;;;;2.50;2.50;;;;;17.13;58.12;101193.50;2448161;28;46502;-92
2022/04/13 03:07:16;;;;;;;;;2.50;2.50;;;;;17.13;57.97;101193.50;2441558;28;47942;-91
2022/04/13 03:08:26;;;;;;;;;3.50;3.00;;;;;17.13;58.36;101191.69;2449584;28;45192;-92
2022/04/13 03:09:37;;;;;;;;;2.00;2.00;;;;;17.12;58.05;101197.06;2448564;27;46194;-92
2022/04/13 03:10:48;;;;;;;;;5.00;2.00;;;;;17.12;58.03;101197.06;2448292;28;44696;-92
2022/04/13 03:11:58;;;;;;;;;4.00;3.00;;;;;17.13;57.94;101198.81;2446865;28;47125;-90
2022/04/13 03:13:10;;;;;;;;;4.75;3.75;;;;;17.13;58.29;101206.75;2445086;28;45209;-93
2022/04/13 03:14:23;;;;;;;;;1.00;1.00;;;;;17.12;58.13;101205.03;2451049;28;47038;-92
2022/04/13 03:15:33;;;;;;;;;3.00;2.75;;;;;17.10;58.64;101211.31;2451665;28;45304;-92
2022/04/13 03:16:43;;;;;;;;;4.25;4.00;;;;;17.10;58.24;101215.75;2460849;27;46193;-92
2022/04/13 03:17:54;;;;;;;;;3.25;3.25;;;;;17.09;58.75;101214.88;2442373;27;44567;-92
2022/04/13 03:19:04;;;;;;;;;4.00;3.00;;;;;17.08;58.66;101215.84;2442324;28;45266;-93
2022/04/13 03:20:14;;;;;;;;;4.25;3.00;;;;;17.09;59.21;101225.50;2442498;28;44743;-92
2022/04/13 03:21:25;;;;;;;;;3.25;3.25;;;;;17.08;58.78;101222.94;2442434;28;45242;-93
2022/04/13 03:22:35;;;;;;;;;4.25;2.00;;;;;17.07;58.93;101222.09;2447406;28;45339;-93
2022/04/13 03:23:46;;;;;;;;;3.50;3.00;;;;;17.07;58.93;101227.41;2451325;28;47191;-93
2022/04/13 03:24:59;;;;;;;;;3.00;3.00;;;;;17.08;59.00;101229.13;2442549;28;45385;-92
2022/04/13 03:26:10;;;;;;;;;2.50;1.75;;;;;17.07;59.79;101230.06;2448255;28;47251;-91
2022/04/13 03:27:20;;;;;;;;;2.25;2.25;;;;;17.08;59.45;101233.56;2450697;28;45306;-93
2022/04/13 03:28:31;;;;;;;;;4.25;4.25;;;;;17.07;59.38;101223.88;2448922;27;45336;-92
2022/04/13 03:29:41;;;;;;;;;3.00;3.00;;;;;17.06;59.83;101224.84;2449002;28;45346;-91
2022/04/13 03:30:53;;;;;;;;;2.25;2.25;;;;;17.05;60.18;101231.94;2440658;28;47194;-91
2022/04/13 03:32:04;;;;;;;;;5.75;5.00;;;;;17.05;59.99;101231.94;2447455;28;44615;-92
2022/04/13 03:33:14;;;;;;;;;5.00;3.00;;;;;17.03;59.97;101236.47;2441978;28;46529;-94
2022/04/13 03:34:25;;;;;;;;;4.50;3.25;;;;;17.05;60.20;101239.91;2445781;28;45166;-93
2022/04/13 03:35:35;;;;;;;;;4.00;3.75;;;;;17.03;60.72;101232.94;2441497;28;48117;-94
2022/04/13 03:36:50;;;;;;;;;3.75;3.00;;;;;17.01;60.80;101227.72;2450212;28;45481;-95
2022/04/13 03:38:00;;;;;;;;;6.00;3.00;;;;;16.99;60.57;101230.44;2444491;27;45578;-95
2022/04/13 03:39:10;;;;;;;;;4.25;4.25;;;;;16.96;60.83;101233.25;2443470;28;45285;-95
2022/04/13 03:40:23;;;;;;;;;7.00;4.00;;;;;16.96;60.74;101243.03;2441568;28;46323;-94
2022/04/13 03:41:37;;;;;;;;;4.25;3.25;;;;;16.95;61.20;101239.53;2449767;28;45290;-96
2022/04/13 03:42:47;;;;;;;;;5.00;5.00;;;;;16.91;61.43;101242.41;2451216;27;46782;-96
2022/04/13 03:43:57;;;;;;;;;2.00;2.00;;;;;16.89;60.95;101239.00;2451856;28;44845;-96
2022/04/13 03:45:13;;;;;;;;;3.25;3.25;;;;;16.86;61.17;101240.88;2451559;27;45301;-95
2022/04/13 03:46:23;;;;;;;;;3.50;3.50;;;;;16.87;61.27;101244.38;2441800;28;45272;-96
2022/04/13 03:47:34;;;;;;;;;5.00;3.00;;;;;16.84;61.33;101247.19;2444329;28;46405;-96
2022/04/13 03:48:44;;;;;;;;;5.00;5.00;;;;;16.84;61.55;101245.38;2452182;27;44667;-96
2022/04/13 03:49:54;;;;;;;;;7.00;5.75;;;;;16.83;61.33;101240.16;2451964;27;45403;-96
2022/04/13 03:51:05;;;;;;;;;5.00;4.00;;;;;16.82;61.49;101244.59;2451920;27;44637;-96
2022/04/13 03:52:15;;;;;;;;;5.75;4.00;;;;;16.80;61.74;101235.88;2451291;28;45354;-96
2022/04/13 03:53:26;;;;;;;;;5.25;3.75;;;;;16.80;61.91;101242.97;2451818;27;44795;-95
2022/04/13 03:54:36;;;;;;;;;5.50;4.50;;;;;16.80;61.80;101241.19;2451393;27;45966;-95
2022/04/13 03:55:47;;;;;;;;;4.75;4.75;;;;;16.80;62.10;101241.19;2452267;27;44523;-96
2022/04/13 03:56:57;;;;;;;;;5.75;4.25;;;;;16.79;62.21;101238.63;2461064;27;48211;-95
2022/04/13 03:58:07;;;;;;;;;4.75;4.00;;;;;16.77;62.29;101238.66;2451365;28;45312;-94
2022/04/13 03:59:20;;;;;;;;;4.75;3.75;;;;;16.75;62.26;101232.59;2450881;28;46249;-95
2022/04/13 04:00:31;;;;;;;;;6.00;4.00;;;;;16.74;62.27;101241.50;2441790;28;44696;-95
2022/04/13 04:01:42;;;;;;;;;5.00;5.00;;;;;16.72;62.40;101238.03;2447296;28;45508;-95
2022/04/13 04:02:52;;;;;;;;;4.25;4.25;;;;;16.71;62.77;101239.88;2449147;28;44821;-96
2022/04/13 04:04:03;;;;;;;;;6.75;5.50;;;;;16.70;63.03;101253.19;2447999;28;45402;-96
2022/04/13 04:05:13;;;;;;;;;6.50;4.25;;;;;16.69;62.84;101251.50;2446459;28;45959;-96
2022/04/13 04:06:24;;;;;;;;;6.50;5.00;;;;;16.67;62.59;101246.25;2441546;28;46349;-96
2022/04/13 04:07:34;;;;;;;;;5.25;4.75;;;;;16.66;62.95;101249.84;2445897;28;45161;-95
2022/04/13 04:08:45;;;;;;;;;5.00;5.00;;;;;16.64;62.89;101241.94;2449198;27;45243;-96
2022/04/13 04:09:56;;;;;;;;;5.50;4.50;;;;;16.64;63.04;101247.25;2449208;28;45172;-96
2022/04/13 04:11:06;;;;;;;;;4.75;4.75;;;;;16.64;63.10;101246.44;2446609;28;45184;-96
2022/04/13 04:12:17;;;;;;;;;6.00;5.00;;;;;16.62;63.21;101246.47;2453204;28;44532;-96
2022/04/13 04:13:27;;;;;;;;;5.75;4.75;;;;;16.61;63.25;101241.25;2452121;28;47181;-96
2022/04/13 04:14:38;;;;;;;;;5.75;5.25;;;;;16.60;63.31;101245.69;2452800;28;44698;-96
2022/04/13 04:15:49;;;;;;;;;5.75;4.50;;;;;16.60;63.32;101248.34;2452191;27;47513;-96
2022/04/13 04:16:59;;;;;;;;;5.00;5.00;;;;;16.58;63.04;101252.88;2452191;27;45355;-96
2022/04/13 04:18:09;;;;;;;;;4.75;4.25;;;;;16.58;63.33;101254.69;2451094;28;46214;-96
2022/04/13 04:19:20;;;;;;;;;5.50;5.50;;;;;16.56;63.37;101257.41;2442455;28;44590;-96
2022/04/13 04:20:30;;;;;;;;;5.50;5.50;;;;;16.56;63.88;101265.38;2442862;28;45354;-96
2022/04/13 04:21:41;;;;;;;;;5.75;5.50;;;;;16.54;63.66;101269.91;2444798;28;45248;-96
2022/04/13 04:22:51;;;;;;;;;5.00;4.00;;;;;16.53;64.01;101265.53;2451698;28;45092;-96
2022/04/13 04:24:01;;;;;;;;;4.75;3.75;;;;;16.52;63.71;101266.44;2451693;27;44845;-96
2022/04/13 04:25:12;;;;;;;;;6.25;5.00;;;;;16.51;63.63;101267.41;2443697;28;47017;-96
2022/04/13 04:26:22;;;;;;;;;4.50;4.50;;;;;16.51;63.97;101262.97;2441020;28;45142;-96
2022/04/13 04:27:33;;;;;;;;;5.25;5.25;;;;;16.49;63.90;101270.13;2453552;27;46840;-96
2022/04/13 04:28:43;;;;;;;;;10.00;5.50;;;;;16.49;63.99;101269.28;2450950;28;45277;-96
2022/04/13 04:29:53;;;;;;;;;5.25;5.25;;;;;16.49;63.96;101272.78;2448378;28;45259;-96
2022/04/13 04:31:04;;;;;;;;;6.00;5.25;;;;;16.47;64.21;101269.34;2446735;28;45191;-96
2022/04/13 04:32:14;;;;;;;;;6.25;5.25;;;;;16.47;64.15;101279.94;2450112;28;46728;-96
2022/04/13 04:33:25;;;;;;;;;6.00;6.00;;;;;16.46;64.15;101278.25;2441958;28;45207;-96
2022/04/13 04:34:35;;;;;;;;;6.00;5.50;;;;;16.46;64.52;101277.38;2451309;27;47495;-96
2022/04/13 04:35:47;;;;;;;;;6.25;6.25;;;;;16.43;64.27;101275.72;2448810;28;45289;-96
2022/04/13 04:36:57;;;;;;;;;5.00;5.00;;;;;16.42;64.31;101282.81;2451355;28;47338;-96
2022/04/13 04:38:07;;;;;;;;;4.75;4.75;;;;;16.42;64.74;101285.47;2443941;28;44687;-96
2022/04/13 04:39:18;;;;;;;;;8.25;6.00;;;;;16.41;64.58;101282.91;2447457;28;46350;-96
2022/04/13 04:40:29;;;;;;;;;5.25;5.25;;;;;16.39;64.65;101288.31;2441895;28;45294;-96
2022/04/13 04:41:43;;;;;;;;;5.50;5.50;;;;;16.38;64.32;101286.56;2451353;28;45501;-96
2022/04/13 04:42:54;;;;;;;;;6.50;5.50;;;;;16.37;64.87;101292.81;2451382;28;45166;-95
2022/04/13 04:44:04;;;;;;;;;6.75;5.50;;;;;16.37;64.93;101291.97;2450141;28;48209;-96
2022/04/13 04:45:22;;;;;;;;;7.00;5.00;;;;;16.35;64.74;101286.72;2449391;28;45188;-95
2022/04/13 04:46:32;;;;;;;;;9.00;8.50;;;;;16.35;64.61;101293.81;2441960;28;45660;-96
2022/04/13 04:47:43;;;;;;;;;6.00;5.25;;;;;16.35;64.73;101284.06;2450967;28;45176;-96
2022/04/13 04:48:54;;;;;;;;;7.00;5.25;;;;;16.35;64.23;101289.38;2451311;27;45453;-96
2022/04/13 04:50:05;;;;;;;;;5.50;3.75;;;;;16.33;64.60;101285.94;2450133;27;45199;-96
2022/04/13 04:51:16;;;;;;;;;8.75;6.75;;;;;16.33;64.87;101280.63;2447383;28;46957;-96
2022/04/13 04:52:26;;;;;;;;;4.75;3.75;;;;;16.32;64.65;101289.53;2453601;27;44658;-96
2022/04/13 04:53:37;;;;;;;;;7.25;5.50;;;;;16.31;64.68;101290.47;2455354;27;45356;-96
2022/04/13 04:54:48;;;;;;;;;7.00;5.25;;;;;16.31;64.73;101290.47;2443729;28;44776;-96
2022/04/13 04:55:58;;;;;;;;;7.25;6.25;;;;;16.30;65.07;101292.25;2441519;28;46480;-96
2022/04/13 04:57:09;;;;;;;;;6.75;6.75;;;;;16.29;65.12;101290.56;2442141;28;45321;-95
2022/04/13 04:58:19;;;;;;;;;10.50;8.75;;;;;16.28;65.04;101285.31;2456715;27;47078;-96
2022/04/13 04:59:29;;;;;;;;;8.75;7.00;;;;;16.27;64.90;101288.91;2458948;27;45156;-96
2022/04/13 05:00:40;;;;;;;;;6.50;6.00;;;;;16.28;65.04;101301.22;2451703;27;45193;-96
2022/04/13 05:01:50;;;;;;;;;7.25;5.00;;;;;16.27;65.12;101299.50;2450136;27;45313;-96
2022/04/13 05:03:00;;;;;;;;;7.00;7.00;;;;;16.26;65.43;101292.47;2444290;28;46541;-96
2022/04/13 05:04:11;;;;;;;;;5.00;5.00;;;;;16.26;65.28;101289.81;2451197;28;44708;-96
2022/04/13 05:05:22;;;;;;;;;6.00;6.00;;;;;16.26;65.22;101292.47;2442532;28;45448;-96
2022/04/13 05:06:32;;;;;;;;;6.50;6.25;;;;;16.25;65.20;101298.72;2446273;28;45261;-96
2022/04/13 05:07:43;;;;;;;;;8.50;7.00;;;;;16.24;65.54;101302.31;2446957;28;46378;-96
2022/04/13 05:08:57;;;;;;;;;10.00;6.75;;;;;16.22;65.45;101298.88;2441877;28;44577;-96
2022/04/13 05:10:08;;;;;;;;;8.50;6.00;;;;;16.22;65.40;101304.19;2451028;28;46350;-96
2022/04/13 05:11:19;;;;;;;;;8.75;7.00;;;;;16.20;65.45;101302.44;2445731;27;45322;-95
2022/04/13 05:12:29;;;;;;;;;11.25;9.75;;;;;16.22;65.62;101306.81;2441556;28;45232;-96
2022/04/13 05:13:39;;;;;;;;;8.75;6.75;;;;;16.19;65.70;101305.19;2444395;28;45353;-96
2022/04/13 05:14:52;;;;;;;;;7.25;7.00;;;;;16.17;65.49;101309.69;2447143;27;46560;-96
2022/04/13 05:16:03;;;;;;;;;8.00;6.25;;;;;16.17;65.53;101313.19;2459848;27;45328;-96
2022/04/13 05:17:14;;;;;;;;;11.75;6.25;;;;;16.17;65.71;101317.66;2452578;27;45212;-96
2022/04/13 05:18:24;;;;;;;;;7.00;6.25;;;;;16.17;65.59;101317.66;2447776;28;45273;-96
2022/04/13 05:19:35;;;;;;;;;9.25;9.25;;;;;16.15;65.89;101315.06;2440289;28;47345;-96
2022/04/13 05:20:45;;;;;;;;;8.50;7.25;;;;;16.15;65.74;101317.72;2448877;28;45192;-96
2022/04/13 05:21:55;;;;;;;;;7.25;7.25;;;;;16.15;65.29;101317.72;2449981;27;45492;-96
2022/04/13 05:23:06;;;;;;;;;8.50;6.75;;;;;16.15;65.91;101328.31;2451052;28;45180;-96
2022/04/13 05:24:16;;;;;;;;;8.25;7.00;;;;;16.14;65.61;101316.00;2443294;28;46616;-95
2022/04/13 05:25:26;;;;;;;;;8.50;5.75;;;;;16.14;65.87;101313.34;2441788;28;45157;-96
2022/04/13 05:26:37;;;;;;;;;7.75;7.00;;;;;16.15;65.76;101315.06;2445615;28;47976;-95
2022/04/13 05:27:47;;;;;;;;;8.75;7.50;;;;;16.14;65.89;101316.00;2440839;28;44688;-96
2022/04/13 05:28:58;;;;;;;;;8.00;7.00;;;;;16.14;65.94;101302.75;2441223;28;46144;-96